createdAt,value
2023-05-21T00:01:25.684Z,98454.47
2023-05-21T00:03:52.710Z,98457.00
2023-05-21T00:06:20.884Z,98452.41
2023-05-21T00:08:47.625Z,98445.78
2023-05-21T00:11:14.201Z,98442.56
2023-05-21T00:13:40.979Z,98439.72
2023-05-21T00:16:07.744Z,98453.63
2023-05-21T00:18:34.397Z,98445.75
2023-05-21T00:21:01.776Z,98446.88
2023-05-21T00:23:28.454Z,98442.94
2023-05-21T00:25:55.011Z,98447.59
2023-05-21T00:28:21.569Z,98439.69
2023-05-21T00:30:48.445Z,98430.09
2023-05-21T00:33:15.079Z,98434.84
2023-05-21T00:35:41.620Z,98425.53
2023-05-21T00:38:08.605Z,98421.59
2023-05-21T00:40:35.881Z,98427.16
2023-05-21T00:43:02.560Z,98432.78
2023-05-21T00:45:29.570Z,98420.06
2023-05-21T00:47:56.202Z,98423.81
2023-05-21T00:50:23.135Z,98421.31
2023-05-21T00:52:49.699Z,98412.63
2023-05-21T00:55:16.222Z,98417.47
2023-05-21T00:57:42.737Z,98418.84
2023-05-21T01:00:10.639Z,98421.34
2023-05-21T01:02:38.086Z,98416.59
2023-05-21T01:05:07.822Z,98427.91
2023-05-21T01:07:34.839Z,98415.84
2023-05-21T01:10:03.728Z,98424.66
2023-05-21T01:12:31.113Z,98409.03
2023-05-21T01:14:59.365Z,98410.50
2023-05-21T01:17:26.628Z,98412.41
2023-05-21T01:19:54.597Z,98416.81
2023-05-21T01:22:21.407Z,98412.69
2023-05-21T01:24:49.910Z,98424.66
2023-05-21T01:27:16.686Z,98419.59
2023-05-21T01:29:43.269Z,98422.47
2023-05-21T01:32:42.286Z,98412.38
2023-05-21T01:35:11.312Z,98417.38
2023-05-21T01:37:55.192Z,98411.72
2023-05-21T01:40:35.106Z,98414.44
2023-05-21T01:43:01.675Z,98407.59
2023-05-21T01:45:28.239Z,98406.06
2023-05-21T01:47:55.099Z,98401.03
2023-05-21T01:50:23.360Z,98400.94
2023-05-21T01:52:53.841Z,98403.38
2023-05-21T01:55:24.523Z,98407.16
2023-05-21T01:57:53.420Z,98403.44
2023-05-21T02:00:21.155Z,98397.59
2023-05-21T02:02:47.779Z,98398.69
2023-05-21T02:05:14.478Z,98388.44
2023-05-21T02:07:41.073Z,98397.97
2023-05-21T02:10:07.920Z,98402.09
2023-05-21T02:12:34.454Z,98396.78
2023-05-21T02:15:01.019Z,98400.41
2023-05-21T02:17:31.308Z,98394.59
2023-05-21T02:19:57.889Z,98400.69
2023-05-21T02:22:24.412Z,98397.75
2023-05-21T02:24:50.912Z,98395.31
2023-05-21T02:27:18.997Z,98390.91
2023-05-21T02:29:45.508Z,98389.28
2023-05-21T02:32:12.018Z,98397.44
2023-05-21T02:34:42.300Z,98392.94
2023-05-21T02:37:09.943Z,98394.56
2023-05-21T02:39:36.462Z,98402.66
2023-05-21T02:42:03.233Z,98395.91
2023-05-21T02:44:29.770Z,98397.69
2023-05-21T02:46:56.277Z,98392.13
2023-05-21T02:49:22.789Z,98397.34
2023-05-21T02:51:49.337Z,98402.44
2023-05-21T02:54:15.974Z,98415.16
2023-05-21T02:56:42.527Z,98407.31
2023-05-21T02:59:09.046Z,98406.56
2023-05-21T03:01:36.690Z,98403.44
2023-05-21T03:04:03.532Z,98406.16
2023-05-21T03:06:32.039Z,98404.97
2023-05-21T03:08:58.557Z,98406.69
2023-05-21T03:11:25.063Z,98406.34
2023-05-21T03:13:51.576Z,98407.50
2023-05-21T03:16:18.131Z,98417.00
2023-05-21T03:18:45.062Z,98408.72
2023-05-21T03:21:15.430Z,98408.22
2023-05-21T03:23:42.636Z,98406.44
2023-05-21T03:26:09.205Z,98400.31
2023-05-21T03:28:35.818Z,98405.88
2023-05-21T03:31:02.684Z,98395.00
2023-05-21T03:33:29.199Z,98392.34
2023-05-21T03:35:56.009Z,98396.28
2023-05-21T03:38:22.517Z,98399.41
2023-05-21T03:40:49.066Z,98404.72
2023-05-21T03:43:15.562Z,98404.53
2023-05-21T03:45:44.353Z,98394.38
2023-05-21T03:48:11.179Z,98396.75
2023-05-21T03:50:37.718Z,98399.75
2023-05-21T03:53:04.238Z,98406.28
2023-05-21T03:55:30.876Z,98404.63
2023-05-21T03:57:57.388Z,98405.59
2023-05-21T04:00:23.922Z,98411.81
2023-05-21T04:02:50.639Z,98396.19
2023-05-21T04:05:17.248Z,98391.53
2023-05-21T04:07:46.430Z,98385.69
2023-05-21T04:10:13.019Z,98393.75
2023-05-21T04:12:39.564Z,98399.66
2023-05-21T04:15:06.714Z,98400.88
2023-05-21T04:17:34.545Z,98394.97
2023-05-21T04:20:01.315Z,98393.25
2023-05-21T04:22:27.851Z,98390.19
2023-05-21T04:24:54.629Z,98380.84
2023-05-21T04:27:23.689Z,98392.53
2023-05-21T04:29:50.818Z,98388.84
2023-05-21T04:32:18.036Z,98390.72
2023-05-21T04:34:44.633Z,98388.84
2023-05-21T04:37:11.200Z,98392.97
2023-05-21T04:39:37.734Z,98396.56
2023-05-21T04:42:04.303Z,98401.81
2023-05-21T04:44:30.844Z,98400.84
2023-05-21T04:46:57.806Z,98401.16
2023-05-21T04:49:24.389Z,98394.41
2023-05-21T04:51:50.927Z,98386.28
2023-05-21T04:54:17.505Z,98397.03
2023-05-21T04:56:44.414Z,98382.13
2023-05-21T04:59:11.150Z,98386.44
2023-05-21T05:01:38.592Z,98382.78
2023-05-21T05:04:05.746Z,98379.66
2023-05-21T05:06:32.679Z,98376.81
2023-05-21T05:08:59.236Z,98363.88
2023-05-21T05:11:26.534Z,98371.97
2023-05-21T05:13:53.339Z,98367.56
2023-05-21T05:16:24.997Z,98369.13
2023-05-21T05:18:55.376Z,98366.06
2023-05-21T05:21:22.393Z,98365.00
2023-05-21T05:23:48.918Z,98358.06
2023-05-21T05:26:15.435Z,98364.63
2023-05-21T05:28:42.028Z,98356.44
2023-05-21T05:31:08.849Z,98347.63
2023-05-21T05:33:35.877Z,98350.25
2023-05-21T05:36:02.380Z,98350.91
2023-05-21T05:38:28.914Z,98348.78
2023-05-21T05:40:55.594Z,98348.88
2023-05-21T05:43:22.134Z,98351.47
2023-05-21T05:45:48.656Z,98333.88
2023-05-21T05:48:15.425Z,98348.44
2023-05-21T05:50:41.943Z,98341.69
2023-05-21T05:53:08.601Z,98347.69
2023-05-21T05:55:35.254Z,98342.75
2023-05-21T05:58:01.924Z,98355.44
2023-05-21T06:00:28.449Z,98350.66
2023-05-21T06:02:55.109Z,98344.81
2023-05-21T06:05:21.819Z,98361.47
2023-05-21T06:07:48.336Z,98354.63
2023-05-21T06:10:14.871Z,98346.81
2023-05-21T06:12:41.366Z,98349.50
2023-05-21T06:15:08.364Z,98341.22
2023-05-21T06:17:34.957Z,98349.69
2023-05-21T06:20:01.594Z,98350.13
2023-05-21T06:22:28.109Z,98351.06
2023-05-21T06:24:54.641Z,98341.31
2023-05-21T06:27:21.172Z,98342.06
2023-05-21T06:29:47.723Z,98340.81
2023-05-21T06:32:14.242Z,98342.78
2023-05-21T06:34:41.022Z,98338.81
2023-05-21T06:37:07.561Z,98344.22
2023-05-21T06:39:34.081Z,98338.94
2023-05-21T06:42:00.656Z,98344.88
2023-05-21T06:44:27.174Z,98342.56
2023-05-21T06:46:53.729Z,98337.69
2023-05-21T06:49:20.262Z,98345.78
2023-05-21T06:51:46.825Z,98338.34
2023-05-21T06:54:13.327Z,98341.78
2023-05-21T06:56:40.575Z,98335.44
2023-05-21T06:59:07.131Z,98338.84
2023-05-21T07:01:34.468Z,98344.28
2023-05-21T07:04:01.148Z,98340.44
2023-05-21T07:06:29.544Z,98339.72
2023-05-21T07:08:56.294Z,98331.47
2023-05-21T07:11:25.223Z,98332.97
2023-05-21T07:13:51.807Z,98337.53
2023-05-21T07:16:21.847Z,98341.13
2023-05-21T07:18:48.412Z,98343.75
2023-05-21T07:21:14.926Z,98334.38
2023-05-21T07:23:41.452Z,98341.00
2023-05-21T07:26:09.801Z,98331.22
2023-05-21T07:28:36.327Z,98327.03
2023-05-21T07:31:02.943Z,98331.25
2023-05-21T07:33:29.529Z,98322.84
2023-05-21T07:35:56.096Z,98339.03
2023-05-21T07:38:23.008Z,98334.94
2023-05-21T07:40:49.519Z,98329.69
2023-05-21T07:43:16.046Z,98336.06
2023-05-21T07:45:42.594Z,98331.00
2023-05-21T07:48:09.153Z,98331.38
2023-05-21T07:50:35.747Z,98327.06
2023-05-21T07:53:02.362Z,98319.75
2023-05-21T07:55:28.924Z,98321.31
2023-05-21T07:57:56.274Z,98324.25
2023-05-21T08:00:23.426Z,98326.25
2023-05-21T08:02:50.153Z,98337.53
2023-05-21T08:05:19.074Z,98328.81
2023-05-21T08:07:46.315Z,98329.53
2023-05-21T08:10:12.840Z,98328.03
2023-05-21T08:12:39.434Z,98328.22
2023-05-21T08:15:06.255Z,98326.69
2023-05-21T08:17:32.807Z,98326.66
2023-05-21T08:19:59.351Z,98330.72
2023-05-21T08:22:25.861Z,98326.31
2023-05-21T08:24:52.582Z,98333.91
2023-05-21T08:27:19.135Z,98330.69
2023-05-21T08:29:45.783Z,98329.16
2023-05-21T08:32:12.345Z,98327.22
2023-05-21T08:34:39.039Z,98326.81
2023-05-21T08:37:05.600Z,98331.25
2023-05-21T08:39:32.122Z,98332.41
2023-05-21T08:42:04.726Z,98322.84
2023-05-21T08:44:31.259Z,98332.84
2023-05-21T08:46:58.078Z,98332.09
2023-05-21T08:49:27.522Z,98328.09
2023-05-21T08:51:54.137Z,98334.09
2023-05-21T08:54:20.684Z,98333.28
2023-05-21T08:56:49.257Z,98330.47
2023-05-21T08:59:16.431Z,98328.50
2023-05-21T09:01:43.604Z,98331.69
2023-05-21T09:04:20.172Z,98328.75
2023-05-21T09:06:48.048Z,98327.16
2023-05-21T09:09:19.829Z,98336.34
2023-05-21T09:11:46.519Z,98338.31
2023-05-21T09:14:13.175Z,98326.22
2023-05-21T09:16:39.902Z,98336.31
2023-05-21T09:19:07.420Z,98339.94
2023-05-21T09:21:34.002Z,98335.16
2023-05-21T09:24:01.584Z,98326.56
2023-05-21T09:26:28.100Z,98328.56
2023-05-21T09:28:58.536Z,98330.16
2023-05-21T09:31:27.142Z,98333.81
2023-05-21T09:33:55.493Z,98326.41
2023-05-21T09:36:22.091Z,98341.06
2023-05-21T09:38:49.358Z,98343.09
2023-05-21T09:41:19.843Z,98346.78
2023-05-21T09:43:47.991Z,98333.50
2023-05-21T09:46:14.653Z,98336.53
2023-05-21T09:48:42.392Z,98340.78
2023-05-21T09:51:14.885Z,98336.13
2023-05-21T09:53:54.863Z,98339.94
2023-05-21T09:56:23.374Z,98334.41
2023-05-21T09:58:57.259Z,98333.25
2023-05-21T10:01:24.273Z,98325.41
2023-05-21T10:03:57.205Z,98332.19
2023-05-21T10:06:25.186Z,98325.22
2023-05-21T10:08:53.514Z,98333.50
2023-05-21T10:11:21.332Z,98329.06
2023-05-21T10:13:49.092Z,98324.09
2023-05-21T10:16:15.772Z,98321.53
2023-05-21T10:18:42.543Z,98323.41
2023-05-21T10:21:09.102Z,98314.16
2023-05-21T10:23:37.046Z,98314.25
2023-05-21T10:26:04.140Z,98317.03
2023-05-21T10:28:30.675Z,98309.13
2023-05-21T10:30:57.276Z,98308.69
2023-05-21T10:33:26.709Z,98325.84
2023-05-21T10:35:53.510Z,98319.56
2023-05-21T10:38:20.993Z,98314.28
2023-05-21T10:40:50.721Z,98314.00
2023-05-21T10:43:42.432Z,98312.50
2023-05-21T10:46:27.407Z,98313.69
2023-05-21T10:49:39.130Z,98315.31
2023-05-21T10:52:30.448Z,98312.69
2023-05-21T10:55:08.342Z,98303.25
2023-05-21T10:57:58.667Z,98312.88
2023-05-21T11:00:25.672Z,98305.84
2023-05-21T11:02:53.132Z,98298.91
2023-05-21T11:05:39.764Z,98297.75
2023-05-21T11:08:06.382Z,98299.72
2023-05-21T11:10:38.308Z,98307.72
2023-05-21T11:13:08.705Z,98300.41
2023-05-21T11:15:53.699Z,98301.78
2023-05-21T11:18:20.231Z,98305.97
2023-05-21T11:20:51.079Z,98304.53
2023-05-21T11:23:18.485Z,98306.97
2023-05-21T11:25:45.159Z,98309.75
2023-05-21T11:28:11.669Z,98303.13
2023-05-21T11:30:40.894Z,98304.28
2023-05-21T11:33:07.573Z,98300.72
2023-05-21T11:35:38.408Z,98295.09
2023-05-21T11:38:04.929Z,98289.97
2023-05-21T11:40:31.462Z,98295.16
2023-05-21T11:42:58.070Z,98303.66
2023-05-21T11:45:28.768Z,98309.13
2023-05-21T11:47:56.071Z,98302.84
2023-05-21T11:50:22.698Z,98293.72
2023-05-21T11:52:49.651Z,98299.38
2023-05-21T11:55:16.207Z,98304.03
2023-05-21T11:57:44.621Z,98302.31
2023-05-21T12:00:15.971Z,98304.75
2023-05-21T12:02:57.429Z,98305.78
2023-05-21T12:05:24.404Z,98299.09
2023-05-21T12:07:51.153Z,98296.81
2023-05-21T12:10:20.918Z,98299.00
2023-05-21T12:12:54.719Z,98289.06
2023-05-21T12:15:22.729Z,98293.66
2023-05-21T12:17:49.895Z,98286.72
2023-05-21T12:20:17.101Z,98291.78
2023-05-21T12:22:44.711Z,98288.59
2023-05-21T12:25:12.119Z,98279.69
2023-05-21T12:27:39.289Z,98278.09
2023-05-21T12:30:06.691Z,98279.78
2023-05-21T12:32:33.264Z,98278.28
2023-05-21T12:34:59.850Z,98276.34
2023-05-21T12:37:26.763Z,98273.16
2023-05-21T12:39:54.266Z,98272.00
2023-05-21T12:42:28.102Z,98268.06
2023-05-21T12:44:54.643Z,98278.22
2023-05-21T12:47:26.589Z,98278.69
2023-05-21T12:50:00.418Z,98276.63
2023-05-21T12:52:27.297Z,98278.22
2023-05-21T12:54:56.293Z,98275.31
2023-05-21T12:57:28.232Z,98274.59
2023-05-21T12:59:59.376Z,98282.47
2023-05-21T13:02:33.867Z,98277.34
2023-05-21T13:05:11.094Z,98275.94
2023-05-21T13:07:38.969Z,98273.25
2023-05-21T13:10:06.009Z,98269.81
2023-05-21T13:12:33.108Z,98268.13
2023-05-21T13:15:01.401Z,98269.50
2023-05-21T13:17:28.153Z,98275.69
2023-05-21T13:20:15.012Z,98262.34
2023-05-21T13:22:47.575Z,98261.88
2023-05-21T13:25:18.295Z,98252.44
2023-05-21T13:27:44.951Z,98258.97
2023-05-21T13:30:11.759Z,98251.97
2023-05-21T13:32:38.881Z,98246.88
2023-05-21T13:35:05.846Z,98252.56
2023-05-21T13:37:33.188Z,98247.41
2023-05-21T13:39:59.728Z,98258.31
2023-05-21T13:42:26.257Z,98253.03
2023-05-21T13:44:52.835Z,98246.44
2023-05-21T13:47:19.380Z,98248.91
2023-05-21T13:49:45.876Z,98254.72
2023-05-21T13:52:12.409Z,98245.34
2023-05-21T13:54:39.397Z,98245.69
2023-05-21T13:57:06.131Z,98242.47
2023-05-21T13:59:33.750Z,98237.38
2023-05-21T14:02:00.557Z,98236.78
2023-05-21T14:04:27.110Z,98244.41
2023-05-21T14:06:53.924Z,98243.75
2023-05-21T14:09:20.814Z,98246.88
2023-05-21T14:11:47.342Z,98233.56
2023-05-21T14:14:18.888Z,98236.38
2023-05-21T14:16:47.143Z,98237.38
2023-05-21T14:19:14.000Z,98243.00
2023-05-21T14:21:41.009Z,98229.78
2023-05-21T14:24:07.689Z,98222.75
2023-05-21T14:26:34.285Z,98228.75
2023-05-21T14:29:00.822Z,98220.75
2023-05-21T14:31:27.360Z,98218.06
2023-05-21T14:33:53.982Z,98221.09
2023-05-21T14:36:20.628Z,98223.13
2023-05-21T14:38:47.184Z,98233.50
2023-05-21T14:41:13.730Z,98218.22
2023-05-21T14:43:40.375Z,98230.03
2023-05-21T14:46:06.921Z,98222.81
2023-05-21T14:48:33.514Z,98229.69
2023-05-21T14:51:00.454Z,98225.22
2023-05-21T14:53:27.037Z,98225.13
2023-05-21T14:55:54.113Z,98228.22
2023-05-21T14:58:20.904Z,98229.91
2023-05-21T15:00:47.460Z,98227.91
2023-05-21T15:03:14.013Z,98223.25
2023-05-21T15:05:40.598Z,98222.00
2023-05-21T15:08:09.478Z,98225.88
2023-05-21T15:10:36.057Z,98215.97
2023-05-21T15:13:02.569Z,98221.34
2023-05-21T15:15:29.098Z,98213.59
2023-05-21T15:17:57.742Z,98214.81
2023-05-21T15:20:24.378Z,98209.94
2023-05-21T15:22:53.442Z,98212.25
2023-05-21T15:25:21.657Z,98210.91
2023-05-21T15:27:50.432Z,98202.41
2023-05-21T15:30:17.186Z,98205.34
2023-05-21T15:32:43.715Z,98210.00
2023-05-21T15:35:10.392Z,98206.03
2023-05-21T15:37:37.157Z,98202.41
2023-05-21T15:40:04.280Z,98206.25
2023-05-21T15:42:31.821Z,98200.50
2023-05-21T15:44:58.494Z,98197.53
2023-05-21T15:47:25.107Z,98198.53
2023-05-21T15:49:51.729Z,98197.97
2023-05-21T15:52:19.826Z,98190.25
2023-05-21T15:54:46.972Z,98190.50
2023-05-21T15:57:13.528Z,98187.88
2023-05-21T15:59:40.071Z,98181.75
2023-05-21T16:02:06.728Z,98184.00
2023-05-21T16:04:33.923Z,98177.84
2023-05-21T16:07:00.523Z,98172.34
2023-05-21T16:09:27.046Z,98182.34
2023-05-21T16:11:53.574Z,98181.00
2023-05-21T16:14:20.073Z,98171.69
2023-05-21T16:16:46.626Z,98174.63
2023-05-21T16:19:13.259Z,98168.72
2023-05-21T16:21:39.824Z,98179.38
2023-05-21T16:24:06.759Z,98173.75
2023-05-21T16:26:33.274Z,98182.88
2023-05-21T16:29:02.264Z,98183.66
2023-05-21T16:31:28.989Z,98179.00
2023-05-21T16:33:55.799Z,98176.97
2023-05-21T16:36:22.372Z,98172.78
2023-05-21T16:38:48.940Z,98171.59
2023-05-21T16:41:15.581Z,98164.00
2023-05-21T16:43:42.119Z,98169.25
2023-05-21T16:46:08.672Z,98175.25
2023-05-21T16:48:37.367Z,98171.75
2023-05-21T16:51:04.581Z,98174.94
2023-05-21T16:53:31.385Z,98176.53
2023-05-21T16:55:57.918Z,98173.41
2023-05-21T16:58:24.557Z,98170.94
2023-05-21T17:00:51.096Z,98166.59
2023-05-21T17:03:18.157Z,98168.38
2023-05-21T17:05:44.765Z,98156.31
2023-05-21T17:08:11.392Z,98162.91
2023-05-21T17:10:37.909Z,98164.38
2023-05-21T17:13:17.567Z,98159.50
2023-05-21T17:15:48.566Z,98163.16
2023-05-21T17:18:15.291Z,98152.81
2023-05-21T17:20:43.649Z,98157.28
2023-05-21T17:23:10.943Z,98160.13
2023-05-21T17:25:38.058Z,98157.13
2023-05-21T17:28:04.904Z,98163.16
2023-05-21T17:30:31.476Z,98161.19
2023-05-21T17:32:58.353Z,98161.75
2023-05-21T17:35:24.945Z,98162.78
2023-05-21T17:37:53.238Z,98161.19
2023-05-21T17:40:21.347Z,98165.69
2023-05-21T17:42:48.006Z,98162.06
2023-05-21T17:45:14.544Z,98172.69
2023-05-21T17:47:41.206Z,98165.59
2023-05-21T17:50:08.345Z,98171.50
2023-05-21T17:52:34.860Z,98169.59
2023-05-21T17:55:01.424Z,98174.53
2023-05-21T17:57:27.939Z,98175.41
2023-05-21T17:59:55.182Z,98178.84
2023-05-21T18:02:23.412Z,98179.69
2023-05-21T18:04:50.019Z,98177.38
2023-05-21T18:07:16.579Z,98176.66
2023-05-21T18:09:44.028Z,98177.97
2023-05-21T18:12:10.990Z,98177.75
2023-05-21T18:14:37.569Z,98173.03
2023-05-21T18:17:04.258Z,98184.28
2023-05-21T18:19:31.343Z,98177.22
2023-05-21T18:21:58.025Z,98180.28
2023-05-21T18:24:24.547Z,98178.13
2023-05-21T18:26:51.064Z,98180.91
2023-05-21T18:29:17.574Z,98179.75
2023-05-21T18:31:45.246Z,98180.41
2023-05-21T18:34:11.952Z,98182.00
2023-05-21T18:36:38.988Z,98173.94
2023-05-21T18:39:06.669Z,98173.94
2023-05-21T18:41:33.277Z,98174.16
2023-05-21T18:44:01.999Z,98174.16
2023-05-21T18:46:28.994Z,98170.00
2023-05-21T18:48:56.587Z,98163.56
2023-05-21T18:51:23.108Z,98165.97
2023-05-21T18:53:49.669Z,98173.09
2023-05-21T18:56:16.832Z,98174.09
2023-05-21T18:58:43.353Z,98185.75
2023-05-21T19:01:09.893Z,98176.06
2023-05-21T19:03:36.443Z,98183.38
2023-05-21T19:06:03.516Z,98180.97
2023-05-21T19:08:30.061Z,98185.06
2023-05-21T19:10:56.642Z,98191.44
2023-05-21T19:13:23.603Z,98189.09
2023-05-21T19:15:50.167Z,98188.72
2023-05-21T19:18:17.246Z,98188.25
2023-05-21T19:20:43.795Z,98192.44
2023-05-21T19:23:10.504Z,98190.69
2023-05-21T19:25:37.290Z,98193.69
2023-05-21T19:28:03.837Z,98191.50
2023-05-21T19:30:30.976Z,98190.31
2023-05-21T19:32:57.766Z,98191.38
2023-05-21T19:35:24.342Z,98190.59
2023-05-21T19:37:50.900Z,98192.75
2023-05-21T19:40:17.747Z,98191.75
2023-05-21T19:42:44.590Z,98193.34
2023-05-21T19:45:11.744Z,98200.47
2023-05-21T19:47:40.924Z,98193.28
2023-05-21T19:50:08.095Z,98201.63
2023-05-21T19:52:34.908Z,98206.13
2023-05-21T19:55:04.816Z,98193.25
2023-05-21T19:57:32.466Z,98194.44
2023-05-21T19:59:59.177Z,98199.75
2023-05-21T20:02:26.546Z,98196.19
2023-05-21T20:04:56.678Z,98196.63
2023-05-21T20:07:23.281Z,98196.13
2023-05-21T20:09:50.436Z,98190.09
2023-05-21T20:12:16.935Z,98199.69
2023-05-21T20:14:46.710Z,98205.84
2023-05-21T20:17:14.311Z,98199.06
2023-05-21T20:19:41.073Z,98199.28
2023-05-21T20:22:07.671Z,98200.50
2023-05-21T20:24:34.231Z,98201.13
2023-05-21T20:27:01.678Z,98202.03
2023-05-21T20:29:28.791Z,98197.91
2023-05-21T20:31:55.356Z,98197.09
2023-05-21T20:34:21.908Z,98196.25
2023-05-21T20:36:48.807Z,98188.19
2023-05-21T20:39:15.504Z,98193.44
2023-05-21T20:41:44.454Z,98190.66
2023-05-21T20:44:11.251Z,98189.53
2023-05-21T20:46:38.381Z,98195.19
2023-05-21T20:49:05.851Z,98182.47
2023-05-21T20:51:32.530Z,98186.50
2023-05-21T20:53:59.038Z,98189.41
2023-05-21T20:56:40.001Z,98184.28
2023-05-21T20:59:09.233Z,98187.53
2023-05-21T21:01:38.153Z,98179.91
2023-05-21T21:04:04.954Z,98190.34
2023-05-21T21:06:31.787Z,98182.72
2023-05-21T21:08:58.503Z,98189.19
2023-05-21T21:11:25.136Z,98189.59
2023-05-21T21:13:51.888Z,98188.47
2023-05-21T21:16:18.637Z,98191.09
2023-05-21T21:18:47.026Z,98187.41
2023-05-21T21:21:13.692Z,98191.94
2023-05-21T21:23:40.259Z,98191.16
2023-05-21T21:26:07.131Z,98191.47
2023-05-21T21:28:33.953Z,98183.78
2023-05-21T21:31:00.556Z,98179.63
2023-05-21T21:33:27.224Z,98186.78
2023-05-21T21:35:53.840Z,98185.16
2023-05-21T21:38:20.361Z,98186.78
2023-05-21T21:40:46.887Z,98186.84
2023-05-21T21:43:13.411Z,98186.78
2023-05-21T21:45:39.934Z,98183.13
2023-05-21T21:48:06.890Z,98187.91
2023-05-21T21:50:33.463Z,98184.34
2023-05-21T21:53:01.179Z,98182.88
2023-05-21T21:55:27.779Z,98181.25
2023-05-21T21:57:54.306Z,98174.53
2023-05-21T22:00:21.050Z,98170.91
2023-05-21T22:02:47.661Z,98172.53
2023-05-21T22:05:16.382Z,98172.59
2023-05-21T22:07:46.283Z,98176.59
2023-05-21T22:10:14.336Z,98165.28
2023-05-21T22:12:41.349Z,98170.91
2023-05-21T22:15:08.590Z,98161.59
2023-05-21T22:17:35.182Z,98156.78
2023-05-21T22:20:01.729Z,98165.72
2023-05-21T22:22:28.299Z,98161.34
2023-05-21T22:24:54.909Z,98164.97
2023-05-21T22:27:21.429Z,98156.56
2023-05-21T22:29:47.946Z,98158.16
2023-05-21T22:32:14.511Z,98159.38
2023-05-21T22:34:41.913Z,98161.41
2023-05-21T22:37:08.428Z,98158.63
2023-05-21T22:39:34.952Z,98155.03
2023-05-21T22:42:01.474Z,98157.50
2023-05-21T22:44:27.998Z,98155.09
2023-05-21T22:46:56.333Z,98161.47
2023-05-21T22:49:22.979Z,98155.41
2023-05-21T22:51:50.964Z,98155.03
2023-05-21T22:54:17.569Z,98155.94
2023-05-21T22:56:44.947Z,98151.56
2023-05-21T22:59:11.494Z,98152.72
2023-05-21T23:01:38.371Z,98144.75
2023-05-21T23:04:05.049Z,98142.34
2023-05-21T23:06:31.769Z,98147.97
2023-05-21T23:08:58.294Z,98157.63
2023-05-21T23:11:24.825Z,98145.22
2023-05-21T23:13:51.350Z,98149.59
2023-05-21T23:16:17.925Z,98144.00
2023-05-21T23:18:44.551Z,98145.63
2023-05-21T23:21:11.247Z,98140.06
2023-05-21T23:23:37.836Z,98145.63
2023-05-21T23:26:04.349Z,98145.66
2023-05-21T23:28:31.048Z,98142.06
2023-05-21T23:30:57.567Z,98133.59
2023-05-21T23:33:24.080Z,98140.84
2023-05-21T23:35:50.696Z,98127.22
2023-05-21T23:38:17.226Z,98127.63
2023-05-21T23:40:43.790Z,98131.22
2023-05-21T23:43:10.319Z,98125.63
2023-05-21T23:45:37.181Z,98123.25
2023-05-21T23:48:04.003Z,98118.03
2023-05-21T23:50:30.585Z,98120.00
2023-05-21T23:52:57.095Z,98123.22
2023-05-21T23:55:23.648Z,98130.44
2023-05-21T23:57:50.157Z,98113.19
